createdAt,value
2023-05-19T00:04:50.462Z,2.2
2023-05-19T00:10:36.167Z,2.3
2023-05-19T00:16:21.661Z,2.6
2023-05-19T00:22:06.854Z,2.4
2023-05-19T00:27:52.760Z,2.2
2023-05-19T00:33:37.545Z,2.2
2023-05-19T00:39:22.380Z,2.3
2023-05-19T00:45:07.825Z,2.3
2023-05-19T00:50:53.257Z,2.4
2023-05-19T00:56:38.040Z,2.5
2023-05-19T01:02:32.756Z,2.3
2023-05-19T01:08:18.931Z,2.3
2023-05-19T01:14:03.795Z,2.6
2023-05-19T01:19:55.438Z,2.6
2023-05-19T01:25:50.305Z,2.7
2023-05-19T01:31:36.131Z,2.4
2023-05-19T01:37:22.116Z,2.5
2023-05-19T01:43:08.899Z,2.4
2023-05-19T01:48:54.722Z,2.7
2023-05-19T01:54:41.558Z,2.5
2023-05-19T02:00:33.162Z,2.8
2023-05-19T02:06:25.174Z,2.8
2023-05-19T02:12:13.479Z,2.9
2023-05-19T02:18:00.021Z,2.7
2023-05-19T02:23:45.095Z,2.8
2023-05-19T02:29:29.997Z,2.8
2023-05-19T02:35:15.070Z,3
2023-05-19T02:40:59.999Z,2.8
2023-05-19T02:46:45.350Z,2.8
2023-05-19T02:52:30.445Z,2.9
2023-05-19T02:58:16.020Z,3.1
2023-05-19T03:04:01.335Z,2.8
2023-05-19T03:09:47.263Z,2.9
2023-05-19T03:15:32.204Z,2.8
2023-05-19T03:21:18.162Z,2.9
2023-05-19T03:27:04.071Z,3
2023-05-19T03:32:49.505Z,3.1
2023-05-19T03:38:34.373Z,3
2023-05-19T03:44:19.149Z,3
2023-05-19T03:50:03.941Z,3.1
2023-05-19T03:55:49.728Z,3.1
2023-05-19T04:01:34.726Z,3.2
2023-05-19T04:07:19.568Z,2.9
2023-05-19T04:13:04.468Z,3.1
2023-05-19T04:18:49.461Z,3.1
2023-05-19T04:24:34.450Z,3
2023-05-19T04:30:20.971Z,4.5
2023-05-19T04:36:06.228Z,4
2023-05-19T04:41:51.165Z,4
2023-05-19T04:47:35.978Z,3.9
2023-05-19T04:53:20.964Z,3.6
2023-05-19T04:59:05.868Z,3.8
2023-05-19T05:04:50.792Z,3.5
2023-05-19T05:10:36.151Z,3.4
2023-05-19T05:16:21.380Z,3.9
2023-05-19T05:22:06.721Z,3.5
2023-05-19T05:27:51.740Z,3.4
2023-05-19T05:33:36.836Z,3.6
2023-05-19T05:39:21.889Z,3.3
2023-05-19T05:45:07.047Z,3.5
2023-05-19T05:50:53.249Z,4.1
2023-05-19T05:56:38.537Z,4
2023-05-19T06:02:23.768Z,3.7
2023-05-19T06:08:08.927Z,3.4
2023-05-19T06:13:53.895Z,3.7
2023-05-19T06:19:38.924Z,3.7
2023-05-19T06:25:23.778Z,4
2023-05-19T06:31:09.096Z,3.8
2023-05-19T06:36:54.114Z,3.6
2023-05-19T06:42:38.833Z,3.5
2023-05-19T06:48:23.567Z,3.6
2023-05-19T06:54:08.705Z,3.7
2023-05-19T06:59:53.855Z,3.7
2023-05-19T07:05:38.894Z,3.4
2023-05-19T07:11:23.624Z,3.8
2023-05-19T07:17:08.577Z,3.2
2023-05-19T07:22:53.315Z,3.4
2023-05-19T07:28:41.761Z,3.1
2023-05-19T07:34:26.903Z,3.2
2023-05-19T07:40:12.277Z,2.8
2023-05-19T07:45:57.254Z,2.7
2023-05-19T07:51:42.104Z,2.8
2023-05-19T07:57:26.997Z,2.9
2023-05-19T08:03:12.527Z,2.5
2023-05-19T08:08:57.722Z,2.6
2023-05-19T08:14:42.601Z,2.3
2023-05-19T08:20:27.559Z,2.9
2023-05-19T08:26:12.521Z,2.5
2023-05-19T08:31:57.621Z,2.4
2023-05-19T08:37:42.528Z,2.3
2023-05-19T08:43:27.330Z,2.2
2023-05-19T08:49:13.858Z,2.3
2023-05-19T08:55:03.002Z,2.2
2023-05-19T09:00:48.358Z,2.4
2023-05-19T09:06:33.201Z,2.3
2023-05-19T09:12:18.020Z,2.3
2023-05-19T09:18:13.378Z,2.3
2023-05-19T09:23:58.420Z,2.1
2023-05-19T09:29:43.397Z,2.2
2023-05-19T09:35:28.330Z,2.1
2023-05-19T09:41:13.213Z,1.9
2023-05-19T09:46:58.412Z,1.7
2023-05-19T09:52:45.828Z,2
2023-05-19T09:58:33.262Z,2
2023-05-19T10:04:18.194Z,1.8
2023-05-19T10:10:03.434Z,2
2023-05-19T10:15:59.860Z,1.7
2023-05-19T10:21:45.497Z,1.9
2023-05-19T10:27:31.230Z,2
2023-05-19T10:33:19.072Z,1.9
2023-05-19T10:39:07.401Z,1.7
2023-05-19T10:44:55.991Z,1.6
2023-05-19T10:50:42.098Z,1.5
2023-05-19T10:56:36.087Z,1.7
2023-05-19T11:02:31.923Z,1.6
2023-05-19T11:08:16.844Z,1.9
2023-05-19T11:14:02.296Z,1.5
2023-05-19T11:19:52.222Z,1.4
2023-05-19T11:25:48.170Z,1.6
2023-05-19T11:31:33.353Z,1.7
2023-05-19T11:37:18.270Z,1.5
2023-05-19T11:43:03.312Z,1.6
2023-05-19T11:48:48.854Z,1.5
2023-05-19T11:54:37.229Z,1.4
2023-05-19T12:00:24.500Z,1.5
2023-05-19T12:06:09.866Z,1.4
2023-05-19T12:11:54.413Z,1.4
2023-05-19T12:17:39.451Z,1.3
2023-05-19T12:23:24.203Z,1.4
2023-05-19T12:29:10.717Z,1.3
2023-05-19T12:34:58.126Z,1.3
2023-05-19T12:40:42.959Z,1.3
2023-05-19T12:46:27.956Z,1.2
2023-05-19T12:52:15.804Z,1.3
2023-05-19T12:58:00.961Z,1
2023-05-19T13:03:46.595Z,1.3
2023-05-19T13:09:31.757Z,1.4
2023-05-19T13:15:17.053Z,1.2
2023-05-19T13:21:01.984Z,1.2
2023-05-19T13:26:47.633Z,1.5
2023-05-19T13:32:32.532Z,1.1
2023-05-19T13:38:17.465Z,1.2
2023-05-19T13:44:03.144Z,1.2
2023-05-19T13:49:47.984Z,1.4
2023-05-19T13:55:32.956Z,1.1
2023-05-19T14:01:18.080Z,1.3
2023-05-19T14:07:03.182Z,1.2
2023-05-19T14:13:25.696Z,1.2
2023-05-19T14:18:53.127Z,1.2
2023-05-19T14:24:38.094Z,1.3
2023-05-19T14:30:23.107Z,1.3
2023-05-19T14:36:08.396Z,1.1
2023-05-19T14:41:53.132Z,1.2
2023-05-19T14:47:38.160Z,1.3
2023-05-19T14:53:22.940Z,1.1
2023-05-19T14:59:08.679Z,1.3
2023-05-19T15:04:53.917Z,1.2
2023-05-19T15:10:38.702Z,1.1
2023-05-19T15:16:23.545Z,1.5
2023-05-19T15:22:11.472Z,1.2
2023-05-19T15:27:56.845Z,1.4
2023-05-19T15:33:41.858Z,1.4
2023-05-19T15:39:26.748Z,1.4
2023-05-19T15:45:12.442Z,1.5
2023-05-19T15:50:57.723Z,1.6
2023-05-19T15:56:42.723Z,1.6
2023-05-19T16:02:27.934Z,1.7
2023-05-19T16:08:12.896Z,1.7
2023-05-19T16:13:57.902Z,1.7
2023-05-19T16:19:42.761Z,1.5
2023-05-19T16:25:27.593Z,1.5
2023-05-19T16:31:12.738Z,1.5
2023-05-19T16:36:57.692Z,1.6
2023-05-19T16:42:43.675Z,1.4
2023-05-19T16:48:28.488Z,2.9
2023-05-19T16:54:13.433Z,47.6
2023-05-19T16:59:58.318Z,60.3
2023-05-19T17:05:43.153Z,53.9
2023-05-19T17:11:27.782Z,49.7
2023-05-19T17:17:13.084Z,72.5
2023-05-19T17:22:58.851Z,55.5
2023-05-19T17:28:45.736Z,58.3
2023-05-19T17:34:30.950Z,56.3
2023-05-19T17:40:16.332Z,51.4
2023-05-19T17:46:03.609Z,50.6
2023-05-19T17:51:49.491Z,47.4
2023-05-19T17:57:35.451Z,45.3
2023-05-19T18:03:21.007Z,43.1
2023-05-19T18:09:08.125Z,37.3
2023-05-19T18:14:52.724Z,34.4
2023-05-19T18:20:38.265Z,30.5
2023-05-19T18:26:23.241Z,30.4
2023-05-19T18:32:08.781Z,28
2023-05-19T18:37:56.660Z,26.6
2023-05-19T18:43:41.572Z,25.4
2023-05-19T18:49:27.592Z,24.4
2023-05-19T18:55:12.886Z,23.1
2023-05-19T19:01:01.229Z,22.3
2023-05-19T19:06:46.411Z,22.1
2023-05-19T19:12:31.201Z,21.3
2023-05-19T19:18:16.223Z,20
2023-05-19T19:24:01.315Z,19
2023-05-19T19:29:46.287Z,19
2023-05-19T19:35:31.260Z,18.6
2023-05-19T19:41:16.021Z,17.8
2023-05-19T19:47:01.012Z,15.9
2023-05-19T19:52:45.853Z,15.1
2023-05-19T19:58:31.228Z,14.3
2023-05-19T20:04:16.514Z,13.6
2023-05-19T20:10:01.600Z,12.7
2023-05-19T20:15:47.215Z,11.9
2023-05-19T20:21:32.141Z,11.3
2023-05-19T20:27:17.099Z,10.9
2023-05-19T20:33:02.100Z,10.5
2023-05-19T20:38:48.072Z,9.7
2023-05-19T20:44:32.805Z,9.1
2023-05-19T20:50:17.546Z,8.1
2023-05-19T20:56:02.459Z,7.9
2023-05-19T21:01:48.206Z,7.1
2023-05-19T21:07:33.175Z,7.4
2023-05-19T21:13:17.920Z,7.3
2023-05-19T21:19:03.406Z,6.7
2023-05-19T21:24:48.482Z,6.4
2023-05-19T21:30:34.307Z,5.9
2023-05-19T21:36:19.480Z,6.1
2023-05-19T21:42:04.298Z,5.7
2023-05-19T21:47:49.016Z,5.5
2023-05-19T21:53:33.854Z,5.3
2023-05-19T21:59:18.991Z,5.2
2023-05-19T22:05:04.070Z,4.8
2023-05-19T22:10:50.604Z,4.4
2023-05-19T22:16:36.562Z,4.6
2023-05-19T22:22:21.555Z,4.2
2023-05-19T22:28:06.613Z,4.1
2023-05-19T22:33:52.707Z,4.1
2023-05-19T22:39:37.630Z,3.8
2023-05-19T22:45:22.764Z,3.7
2023-05-19T22:51:07.690Z,3.8
2023-05-19T22:56:52.463Z,3.7
2023-05-19T23:02:37.557Z,3.6
2023-05-19T23:08:22.404Z,3.5
2023-05-19T23:14:12.463Z,3.1
2023-05-19T23:19:57.324Z,3.5
2023-05-19T23:25:42.763Z,3.1
2023-05-19T23:31:27.937Z,3.3
2023-05-19T23:37:12.828Z,3.2
2023-05-19T23:42:57.606Z,3
2023-05-19T23:48:42.524Z,3.1
2023-05-19T23:54:27.273Z,2.9
